DAL1430 KIAH-KATL
Flight info
| Callsign | DAL1430 |
|---|---|
| Flight time | N/A |
| Altitude | 31000 |
| Route | MMUGS4 LCH Q24 PAYTN SHYRE HOBTT3 |
| Aircraft | A320/M-SDE3FGHIRWY/LB1 |
Departure
| Time | 2026-05-06 00:52 |
|---|---|
| Airport | George Bush Intercontinental Airport (KIAH) |
Arrival
| Time | N/A |
|---|---|
| Airport | Hartsfield Jackson Atlanta International Airport (KATL) |
| Time | Latitude | Longitude | Altitude | Speed | Heading |
|---|---|---|---|---|---|
| 2026-05-06 00:12 | 29.98920 | -95.34991 | 97 ft | 0 kts | 92° |
| 2026-05-06 00:43 | 29.98920 | -95.34997 | 98 ft | 2 kts | 92° |
| 2026-05-06 00:43 | 29.98921 | -95.35017 | 97 ft | 2 kts | 92° |
| 2026-05-06 00:43 | 29.98922 | -95.35037 | 97 ft | 2 kts | 92° |
| 2026-05-06 00:43 | 29.98923 | -95.35056 | 97 ft | 2 kts | 131° |
| 2026-05-06 00:44 | 29.98938 | -95.35065 | 97 ft | 2 kts | 204° |
| 2026-05-06 00:44 | 29.98942 | -95.35063 | 97 ft | 0 kts | 215° |
| 2026-05-06 00:44 | 29.98942 | -95.35064 | 97 ft | 0 kts | 215° |
| 2026-05-06 00:47 | 29.98931 | -95.35071 | 97 ft | 7 kts | 209° |
| 2026-05-06 00:47 | 29.98898 | -95.35112 | 98 ft | 7 kts | 257° |
| 2026-05-06 00:48 | 29.98897 | -95.35162 | 98 ft | 6 kts | 270° |
| 2026-05-06 00:48 | 29.98898 | -95.35205 | 97 ft | 5 kts | 270° |
| 2026-05-06 00:48 | 29.98900 | -95.35240 | 97 ft | 5 kts | 276° |
| 2026-05-06 00:48 | 29.98907 | -95.35278 | 98 ft | 5 kts | 290° |
| 2026-05-06 00:49 | 29.98922 | -95.35353 | 97 ft | 15 kts | 274° |
| 2026-05-06 00:49 | 29.98922 | -95.35445 | 97 ft | 8 kts | 268° |
| 2026-05-06 00:49 | 29.98909 | -95.35503 | 98 ft | 6 kts | 245° |
| 2026-05-06 00:49 | 29.98894 | -95.35539 | 100 ft | 4 kts | 243° |
| 2026-05-06 00:50 | 29.98881 | -95.35567 | 99 ft | 3 kts | 242° |
| 2026-05-06 00:50 | 29.98851 | -95.35631 | 99 ft | 12 kts | 242° |
| 2026-05-06 00:50 | 29.98832 | -95.35671 | 101 ft | 0 kts | 239° |
| 2026-05-06 00:51 | 29.98832 | -95.35672 | 101 ft | 2 kts | 239° |
| 2026-05-06 00:51 | 29.98778 | -95.35754 | 103 ft | 17 kts | 205° |
| 2026-05-06 00:51 | 29.98662 | -95.35709 | 102 ft | 26 kts | 152° |
| 2026-05-06 00:51 | 29.98247 | -95.35456 | 102 ft | 108 kts | 152° |
| 2026-05-06 00:52 | 29.97373 | -95.34918 | 128 ft | 170 kts | 152° |
| 2026-05-06 00:52 | 29.96290 | -95.34289 | 802 ft | 177 kts | 155° |
| 2026-05-06 00:52 | 29.95130 | -95.33691 | 1501 ft | 189 kts | 159° |
| 2026-05-06 00:52 | 29.93810 | -95.33041 | 1984 ft | 225 kts | 158° |
| 2026-05-06 00:53 | 29.92269 | -95.32207 | 2413 ft | 264 kts | 155° |
| 2026-05-06 00:53 | 29.90724 | -95.30811 | 2840 ft | 304 kts | 132° |
| 2026-05-06 00:53 | 29.89684 | -95.28537 | 3269 ft | 341 kts | 109° |
| 2026-05-06 00:53 | 29.89433 | -95.25738 | 3736 ft | 372 kts | 88° |
| 2026-05-06 00:54 | 29.90108 | -95.22723 | 4290 ft | 396 kts | 66° |
| 2026-05-06 00:54 | 29.91558 | -95.20000 | 5079 ft | 403 kts | 57° |
| 2026-05-06 00:54 | 29.93118 | -95.17341 | 5741 ft | 409 kts | 56° |
| 2026-05-06 00:54 | 29.94765 | -95.14575 | 6310 ft | 415 kts | 55° |
| 2026-05-06 00:55 | 29.96269 | -95.11718 | 6880 ft | 420 kts | 67° |
| 2026-05-06 00:55 | 29.97019 | -95.08515 | 7464 ft | 422 kts | 85° |
| 2026-05-06 00:55 | 29.97194 | -95.05136 | 8124 ft | 423 kts | 89° |
| 2026-05-06 00:55 | 29.97332 | -95.01727 | 8769 ft | 427 kts | 89° |
| 2026-05-06 00:56 | 29.97478 | -94.98291 | 9421 ft | 430 kts | 89° |
| 2026-05-06 00:56 | 29.97629 | -94.94826 | 10044 ft | 434 kts | 89° |
| 2026-05-06 00:56 | 29.97831 | -94.91336 | 10628 ft | 440 kts | 83° |
| 2026-05-06 00:56 | 29.98413 | -94.87852 | 11189 ft | 445 kts | 79° |
| 2026-05-06 00:57 | 29.99050 | -94.84332 | 11763 ft | 450 kts | 79° |
| 2026-05-06 00:57 | 29.99479 | -94.81931 | 12043 ft | 453 kts | 79° |
| 2026-05-06 00:57 | 30.00102 | -94.78398 | 12418 ft | 458 kts | 79° |
| 2026-05-06 00:57 | 30.00736 | -94.74785 | 12817 ft | 461 kts | 79° |
| 2026-05-06 00:58 | 30.01368 | -94.71144 | 13212 ft | 465 kts | 79° |
| 2026-05-06 00:58 | 30.02000 | -94.67468 | 13590 ft | 468 kts | 79° |
| 2026-05-06 00:58 | 30.02627 | -94.63771 | 13936 ft | 472 kts | 79° |
| 2026-05-06 00:58 | 30.03257 | -94.60048 | 14279 ft | 474 kts | 79° |
| 2026-05-06 00:59 | 30.03891 | -94.56300 | 14635 ft | 477 kts | 79° |
| 2026-05-06 00:59 | 30.04520 | -94.52531 | 14985 ft | 479 kts | 79° |
| 2026-05-06 00:59 | 30.05150 | -94.48743 | 15341 ft | 481 kts | 79° |
| 2026-05-06 00:59 | 30.05784 | -94.44932 | 15713 ft | 483 kts | 79° |
| 2026-05-06 01:00 | 30.06413 | -94.41116 | 16062 ft | 485 kts | 79° |
| 2026-05-06 01:00 | 30.07044 | -94.37287 | 16427 ft | 487 kts | 79° |
| 2026-05-06 01:00 | 30.07676 | -94.33444 | 16797 ft | 488 kts | 79° |
| 2026-05-06 01:00 | 30.08308 | -94.29579 | 17173 ft | 490 kts | 79° |
| 2026-05-06 01:01 | 30.08940 | -94.25716 | 17556 ft | 491 kts | 79° |
| 2026-05-06 01:01 | 30.09572 | -94.21840 | 17940 ft | 492 kts | 79° |
| 2026-05-06 01:01 | 30.10203 | -94.17950 | 18304 ft | 493 kts | 79° |
| 2026-05-06 01:01 | 30.10827 | -94.14049 | 18639 ft | 494 kts | 79° |
| 2026-05-06 01:02 | 30.11447 | -94.10140 | 18980 ft | 495 kts | 79° |
| 2026-05-06 01:02 | 30.12066 | -94.06217 | 19325 ft | 497 kts | 79° |
| 2026-05-06 01:02 | 30.12684 | -94.02289 | 19679 ft | 498 kts | 79° |
| 2026-05-06 01:02 | 30.13300 | -93.98356 | 20054 ft | 499 kts | 79° |
| 2026-05-06 01:03 | 30.13916 | -93.94400 | 20409 ft | 500 kts | 78° |
| 2026-05-06 01:03 | 30.14531 | -93.90441 | 20774 ft | 501 kts | 78° |
| 2026-05-06 01:03 | 30.15144 | -93.86471 | 21144 ft | 502 kts | 78° |
| 2026-05-06 01:03 | 30.15756 | -93.82498 | 21512 ft | 503 kts | 78° |
| 2026-05-06 01:04 | 30.16365 | -93.78508 | 21885 ft | 504 kts | 78° |
| 2026-05-06 01:04 | 30.16961 | -93.74512 | 22245 ft | 505 kts | 78° |
| 2026-05-06 01:04 | 30.17554 | -93.70513 | 22633 ft | 506 kts | 78° |
| 2026-05-06 01:04 | 30.18139 | -93.66554 | 23021 ft | 506 kts | 78° |
| 2026-05-06 01:05 | 30.18730 | -93.62528 | 23421 ft | 507 kts | 78° |
| 2026-05-06 01:05 | 30.19317 | -93.58509 | 23755 ft | 508 kts | 78° |
| 2026-05-06 01:05 | 30.19905 | -93.54473 | 24088 ft | 508 kts | 78° |
| 2026-05-06 01:05 | 30.20492 | -93.50444 | 24421 ft | 509 kts | 78° |
| 2026-05-06 01:06 | 30.21080 | -93.46407 | 24765 ft | 509 kts | 78° |
| 2026-05-06 01:06 | 30.21672 | -93.42367 | 25108 ft | 510 kts | 78° |
| 2026-05-06 01:06 | 30.22265 | -93.38318 | 25454 ft | 510 kts | 78° |
| 2026-05-06 01:06 | 30.22858 | -93.34269 | 25803 ft | 511 kts | 78° |
| 2026-05-06 01:07 | 30.23453 | -93.30217 | 26159 ft | 511 kts | 78° |
| 2026-05-06 01:07 | 30.24048 | -93.26160 | 26498 ft | 512 kts | 78° |
| 2026-05-06 01:07 | 30.24644 | -93.22102 | 26854 ft | 512 kts | 78° |
| 2026-05-06 01:07 | 30.25242 | -93.18035 | 27232 ft | 513 kts | 78° |
| 2026-05-06 01:08 | 30.25835 | -93.13997 | 27596 ft | 500 kts | 78° |